Time;durP1;ratioP1;P1;durP2;ratioP2;P2;SDS_P1;SDS_P2;PMS_P1;PMS_P2;Temp;Humidity;BMP_temperature;BMP_pressure;BME280_temperature;BME280_humidity;BME280_pressure;Samples;Min_cycle;Max_cycle;Signal;HPM_P1;HPM_P2
2022/08/24 00:01:16;;;;;;;0.00;0.00;;;23.30;72.50;;;;;;5033181;28;20033;-68
2022/08/24 00:03:45;;;;;;;0.25;0.17;;;23.20;72.90;;;;;;5032434;28;20029;-68
2022/08/24 00:06:17;;;;;;;0.13;0.10;;;23.00;73.50;;;;;;5032953;28;20028;-68
2022/08/24 00:08:46;;;;;;;0.30;0.20;;;22.90;73.00;;;;;;5050394;28;20033;-68
2022/08/24 00:11:12;;;;;;;0.15;0.15;;;22.90;73.60;;;;;;5032902;28;20056;-68
2022/08/24 00:13:38;;;;;;;0.10;0.10;;;22.90;73.90;;;;;;5049852;28;20033;-68
2022/08/24 00:16:08;;;;;;;1.70;0.82;;;23.00;74.20;;;;;;5051603;28;20029;-67
2022/08/24 00:18:34;;;;;;;0.43;0.15;;;23.20;74.10;;;;;;5054185;28;20411;-68
2022/08/24 00:21:01;;;;;;;0.30;0.30;;;23.00;73.50;;;;;;5053979;28;20500;-68
2022/08/24 00:23:28;;;;;;;0.75;0.73;;;23.00;74.10;;;;;;5035969;28;20036;-68
2022/08/24 00:25:54;;;;;;;0.57;0.20;;;23.10;73.80;;;;;;5036269;28;20029;-68
2022/08/24 00:28:20;;;;;;;0.25;0.25;;;23.10;73.70;;;;;;5036507;28;20105;-68
2022/08/24 00:30:46;;;;;;;0.85;0.57;;;23.00;73.80;;;;;;5053941;28;20115;-68
2022/08/24 00:33:11;;;;;;;0.40;0.38;;;23.00;73.90;;;;;;5053896;28;20040;-68
2022/08/24 00:35:38;;;;;;;0.65;0.47;;;23.00;74.10;;;;;;5054140;28;20029;-68
2022/08/24 00:38:04;;;;;;;0.17;0.10;;;22.90;74.30;;;;;;5053636;28;20029;-68
2022/08/24 00:40:37;;;;;;;0.10;0.10;;;23.00;74.30;;;;;;5053796;28;20497;-68
2022/08/24 00:43:06;;;;;;;2.28;0.38;;;22.90;73.90;;;;;;5053669;28;20029;-68
2022/08/24 00:46:06;;;;;;;0.17;0.17;;;22.70;74.20;;;;;;5036195;28;20179;-68
2022/08/24 00:48:39;;;;;;;1.57;1.20;;;22.80;74.40;;;;;;5038455;28;20024;-68
2022/08/24 00:51:19;;;;;;;0.32;0.30;;;22.80;74.50;;;;;;5019747;28;20166;-68
2022/08/24 00:53:50;;;;;;;1.85;0.55;;;23.00;74.40;;;;;;5036562;28;20060;-68
2022/08/24 00:56:26;;;;;;;0.40;0.40;;;22.90;74.00;;;;;;5053740;28;20051;-68
2022/08/24 00:59:03;;;;;;;0.00;0.00;;;22.90;73.80;;;;;;5036036;28;20032;-68
2022/08/24 01:01:32;;;;;;;0.03;0.03;;;22.90;74.10;;;;;;5019810;28;20098;-68
2022/08/24 01:03:59;;;;;;;1.00;0.60;;;22.90;73.70;;;;;;5033895;28;20105;-69
2022/08/24 01:06:25;;;;;;;0.30;0.17;;;22.90;74.00;;;;;;5029944;28;20099;-67
2022/08/24 01:08:50;;;;;;;1.10;0.65;;;23.00;74.00;;;;;;5025092;28;20037;-67
2022/08/24 01:11:22;;;;;;;0.47;0.47;;;23.00;73.60;;;;;;5045087;28;20504;-67
2022/08/24 01:13:51;;;;;;;0.93;0.47;;;22.80;73.80;;;;;;5031684;28;20037;-67
2022/08/24 01:18:48;;;;;;;0.30;0.20;;;22.70;73.70;;;;;;5046105;28;20025;-67
2022/08/24 01:19:32;;;;;;;1.40;0.40;;;22.60;74.00;;;;;;5038066;28;20037;-67
2022/08/24 01:22:13;;;;;;;0.10;0.10;;;22.50;74.30;;;;;;5037301;28;20033;-67
2022/08/24 01:24:39;;;;;;;0.15;0.15;;;22.40;74.60;;;;;;5052730;28;20377;-67
2022/08/24 01:27:09;;;;;;;0.15;0.15;;;22.40;74.80;;;;;;5052455;28;20044;-67
2022/08/24 01:29:37;;;;;;;0.30;0.13;;;22.40;75.20;;;;;;5052444;28;20072;-67
2022/08/24 01:32:03;;;;;;;0.50;0.40;;;22.40;75.10;;;;;;5035047;28;20025;-67
2022/08/24 01:34:29;;;;;;;0.03;0.03;;;22.30;75.40;;;;;;5052768;28;20499;-67
2022/08/24 01:36:56;;;;;;;0.73;0.68;;;22.30;75.70;;;;;;5034856;28;20029;-67
2022/08/24 01:39:39;;;;;;;0.30;0.30;;;22.20;75.70;;;;;;5034663;28;20389;-67
2022/08/24 01:42:06;;;;;;;0.57;0.55;;;22.30;76.50;;;;;;5020280;28;20147;-67
2022/08/24 01:44:36;;;;;;;0.00;0.00;;;22.30;76.30;;;;;;5032302;28;20029;-67
2022/08/24 01:47:04;;;;;;;5.95;0.80;;;22.30;76.20;;;;;;5031264;28;20029;-67
2022/08/24 01:49:40;;;;;;;0.50;0.40;;;22.20;76.20;;;;;;5032327;28;20490;-67
2022/08/24 01:52:08;;;;;;;0.30;0.22;;;22.10;76.80;;;;;;5031273;28;20037;-67
2022/08/24 01:54:34;;;;;;;5.82;0.93;;;22.10;77.00;;;;;;5030794;28;20033;-68
2022/08/24 01:57:02;;;;;;;0.63;0.45;;;22.00;77.30;;;;;;5032464;28;20163;-67
2022/08/24 01:59:28;;;;;;;0.77;0.52;;;22.00;77.60;;;;;;5031211;28;20026;-67
2022/08/24 02:02:01;;;;;;;0.00;0.00;;;21.80;78.10;;;;;;5031213;28;20036;-67
2022/08/24 02:04:27;;;;;;;2.33;0.85;;;21.70;78.80;;;;;;5031124;28;20393;-67
2022/08/24 02:06:53;;;;;;;0.43;0.35;;;21.80;78.60;;;;;;5014283;28;20057;-68
2022/08/24 02:09:19;;;;;;;0.40;0.40;;;21.80;78.70;;;;;;5031950;28;20037;-67
2022/08/24 02:11:47;;;;;;;0.00;0.00;;;21.60;79.50;;;;;;5032428;28;20030;-66
2022/08/24 02:14:13;;;;;;;0.00;0.00;;;21.40;80.10;;;;;;5032021;28;20041;-67
2022/08/24 02:16:39;;;;;;;0.10;0.10;;;21.50;80.30;;;;;;5051556;28;20041;-67
2022/08/24 02:19:05;;;;;;;0.55;0.55;;;21.40;80.30;;;;;;5051650;28;20036;-67
2022/08/24 02:21:31;;;;;;;0.60;0.60;;;21.40;80.70;;;;;;5034133;28;20641;-67
2022/08/24 02:23:57;;;;;;;0.32;0.30;;;21.40;80.70;;;;;;5033837;28;20031;-67
2022/08/24 02:26:22;;;;;;;0.00;0.00;;;21.40;80.30;;;;;;5051779;28;20380;-67
2022/08/24 02:28:48;;;;;;;1.60;0.32;;;21.30;80.10;;;;;;5051643;28;20044;-67
2022/08/24 02:31:14;;;;;;;0.20;0.20;;;21.30;80.40;;;;;;5033910;28;20025;-66
2022/08/24 02:33:41;;;;;;;0.63;0.43;;;21.30;80.40;;;;;;5033503;28;20174;-67
2022/08/24 02:36:10;;;;;;;0.17;0.17;;;21.30;80.30;;;;;;5051759;28;20037;-67
2022/08/24 02:38:36;;;;;;;0.20;0.10;;;21.20;80.60;;;;;;5050982;28;20763;-67
2022/08/24 02:41:02;;;;;;;1.38;1.02;;;21.20;81.10;;;;;;5032941;28;20508;-67
2022/08/24 02:43:29;;;;;;;0.20;0.20;;;21.20;81.70;;;;;;5049942;28;20025;-67
2022/08/24 02:45:55;;;;;;;0.98;0.88;;;21.30;81.60;;;;;;5051604;28;20474;-68
2022/08/24 02:48:20;;;;;;;0.30;0.30;;;21.40;81.80;;;;;;5051119;28;20098;-67
2022/08/24 02:50:50;;;;;;;1.08;0.95;;;21.50;81.90;;;;;;5051321;28;20033;-67
2022/08/24 02:53:19;;;;;;;0.10;0.10;;;21.60;81.80;;;;;;5033701;28;20108;-67
2022/08/24 02:55:46;;;;;;;0.47;0.47;;;21.60;81.90;;;;;;5051370;28;20516;-67
2022/08/24 02:58:15;;;;;;;0.25;0.25;;;21.60;81.70;;;;;;5051328;28;20033;-67
2022/08/24 03:00:43;;;;;;;0.10;0.10;;;21.50;82.20;;;;;;5033753;28;20424;-67
2022/08/24 03:03:10;;;;;;;0.20;0.20;;;21.40;83.50;;;;;;5050779;28;20032;-67
2022/08/24 03:05:37;;;;;;;0.15;0.15;;;21.30;84.10;;;;;;5033601;28;20025;-68
2022/08/24 03:08:04;;;;;;;0.10;0.10;;;21.40;84.30;;;;;;5051074;28;20112;-68
2022/08/24 03:10:30;;;;;;;0.30;0.30;;;21.40;84.60;;;;;;5033061;28;20040;-67
2022/08/24 03:12:57;;;;;;;1.17;0.70;;;21.40;84.80;;;;;;5032964;28;20032;-68
2022/08/24 03:15:23;;;;;;;0.15;0.15;;;21.40;84.70;;;;;;5024175;28;20057;-68
2022/08/24 03:17:50;;;;;;;0.65;0.52;;;21.40;84.90;;;;;;5029802;28;20142;-68
2022/08/24 03:20:19;;;;;;;0.20;0.20;;;21.30;85.10;;;;;;5030910;28;20476;-68
2022/08/24 03:22:46;;;;;;;2.88;0.47;;;21.40;85.50;;;;;;5030521;28;20029;-68
2022/08/24 03:25:14;;;;;;;0.20;0.20;;;21.40;85.40;;;;;;5030940;28;20064;-68
2022/08/24 03:27:40;;;;;;;0.43;0.35;;;21.40;85.10;;;;;;5031044;28;20101;-68
2022/08/24 03:30:11;;;;;;;0.52;0.45;;;21.40;85.20;;;;;;5030523;28;20132;-69
2022/08/24 03:32:38;;;;;;;0.35;0.35;;;21.40;85.20;;;;;;5029635;28;20069;-67
2022/08/24 03:35:04;;;;;;;0.45;0.45;;;21.50;85.40;;;;;;5030710;28;20032;-67
2022/08/24 03:37:31;;;;;;;0.52;0.52;;;21.60;85.30;;;;;;5030726;28;20044;-66
2022/08/24 03:39:57;;;;;;;1.00;0.88;;;21.60;85.10;;;;;;5030216;28;20029;-67
2022/08/24 03:42:23;;;;;;;0.08;0.08;;;21.60;85.30;;;;;;5012864;28;20049;-67
2022/08/24 03:44:49;;;;;;;0.57;0.55;;;21.40;86.00;;;;;;5030503;28;20115;-67
2022/08/24 03:47:15;;;;;;;0.03;0.03;;;21.30;86.40;;;;;;5030668;28;20108;-67
2022/08/24 03:49:41;;;;;;;0.70;0.47;;;21.40;87.10;;;;;;5039218;28;20060;-67
2022/08/24 03:52:06;;;;;;;8.20;2.40;;;21.30;87.10;;;;;;5043595;28;20033;-67
2022/08/24 03:54:33;;;;;;;0.32;0.32;;;21.20;87.80;;;;;;5019913;28;20024;-67
2022/08/24 03:56:59;;;;;;;0.13;0.13;;;21.10;88.60;;;;;;5048186;28;20025;-67
2022/08/24 03:59:24;;;;;;;0.45;0.45;;;20.90;89.70;;;;;;5021511;28;20095;-66
2022/08/24 04:01:50;;;;;;;0.20;0.20;;;20.80;90.30;;;;;;5030470;28;20037;-67
2022/08/24 04:04:16;;;;;;;0.22;0.22;;;20.70;90.90;;;;;;5030042;28;20112;-67
2022/08/24 04:06:45;;;;;;;1.15;1.05;;;20.60;91.30;;;;;;4969749;28;20133;-67
2022/08/24 04:09:12;;;;;;;0.50;0.45;;;20.40;91.90;;;;;;5023728;28;20099;-67
2022/08/24 04:11:37;;;;;;;1.08;0.65;;;20.40;92.40;;;;;;5028713;28;20441;-67
2022/08/24 04:14:04;;;;;;;0.38;0.35;;;20.40;92.70;;;;;;5029705;28;20198;-67
2022/08/24 04:16:33;;;;;;;0.47;0.43;;;20.50;93.20;;;;;;5047377;28;20044;-70
2022/08/24 04:18:59;;;;;;;6.80;0.77;;;20.50;93.10;;;;;;5049733;28;20075;-69
2022/08/24 04:21:29;;;;;;;0.10;0.10;;;20.50;93.20;;;;;;5016093;28;20793;-70
2022/08/24 04:23:56;;;;;;;0.03;0.03;;;20.60;93.50;;;;;;5032259;28;20064;-71
2022/08/24 04:26:26;;;;;;;4.10;0.43;;;20.60;93.40;;;;;;5036267;28;20071;-70
2022/08/24 04:28:52;;;;;;;0.80;0.80;;;20.50;93.60;;;;;;5028797;28;20087;-71
2022/08/24 04:31:18;;;;;;;0.10;0.10;;;20.60;94.00;;;;;;5030049;28;20018;-69
2022/08/24 04:33:48;;;;;;;0.65;0.40;;;20.60;94.10;;;;;;5029820;28;20535;-70
2022/08/24 04:36:16;;;;;;;0.10;0.10;;;20.60;94.50;;;;;;5030207;28;20025;-70
2022/08/24 04:38:42;;;;;;;3.10;1.15;;;20.50;94.80;;;;;;5012421;28;20061;-69
2022/08/24 04:41:13;;;;;;;0.35;0.25;;;20.50;95.30;;;;;;5030136;28;20079;-69
2022/08/24 04:43:44;;;;;;;;;;;20.40;95.70;;;;;;5030246;28;20033;-70
2022/08/24 04:46:16;;;;;;;0.93;0.93;;;20.30;96.20;;;;;;5029033;28;19913;-69
2022/08/24 04:48:44;;;;;;;0.00;0.00;;;20.20;97.00;;;;;;5030122;28;20032;-69
2022/08/24 04:51:12;;;;;;;0.30;0.30;;;20.30;97.30;;;;;;5030123;28;20493;-69
2022/08/24 04:53:39;;;;;;;0.45;0.30;;;20.40;98.60;;;;;;5029464;28;20398;-69
2022/08/24 04:56:12;;;;;;;0.65;0.45;;;20.40;99.40;;;;;;5018366;28;20034;-69
2022/08/24 04:58:38;;;;;;;1.75;0.73;;;20.50;99.80;;;;;;5029129;28;20029;-68
2022/08/24 05:01:18;;;;;;;0.57;0.57;;;20.60;99.90;;;;;;5029523;28;20033;-69
2022/08/24 05:03:49;;;;;;;0.15;0.15;;;20.60;99.90;;;;;;4988604;28;20051;-68
2022/08/24 05:06:17;;;;;;;1.55;0.43;;;20.60;99.90;;;;;;5031690;28;20022;-68
2022/08/24 05:08:45;;;;;;;2.10;0.60;;;20.60;99.90;;;;;;5030851;28;20037;-69
2022/08/24 05:11:12;;;;;;;0.08;0.08;;;20.50;99.90;;;;;;5053268;28;20497;-69
2022/08/24 05:13:39;;;;;;;1.38;1.27;;;20.60;99.90;;;;;;5052444;28;20485;-69
2022/08/24 05:16:14;;;;;;;1.05;0.95;;;20.60;99.90;;;;;;5038093;28;20501;-70
2022/08/24 05:18:41;;;;;;;9.63;2.20;;;20.50;99.90;;;;;;5037472;28;20044;-69
2022/08/24 05:21:13;;;;;;;0.28;0.17;;;20.60;99.90;;;;;;5015123;28;20099;-69
2022/08/24 05:23:40;;;;;;;0.40;0.40;;;20.70;99.90;;;;;;5014942;28;20076;-69
2022/08/24 05:26:13;;;;;;;2.22;1.23;;;20.70;99.90;;;;;;5032426;28;20515;-69
2022/08/24 05:28:39;;;;;;;0.47;0.45;;;20.70;99.90;;;;;;5016029;28;20127;-69
2022/08/24 05:31:21;;;;;;;0.50;0.45;;;20.70;99.90;;;;;;5014569;28;20521;-69
2022/08/24 05:33:49;;;;;;;4.15;2.60;;;20.80;99.90;;;;;;5014981;28;20037;-70
2022/08/24 05:36:19;;;;;;;2.90;1.02;;;20.80;99.90;;;;;;5015084;28;20484;-70
2022/08/24 05:38:47;;;;;;;0.10;0.10;;;20.90;99.90;;;;;;5014896;28;20060;-67
2022/08/24 05:41:15;;;;;;;2.53;1.00;;;20.90;99.90;;;;;;5032586;28;20029;-68
2022/08/24 05:43:41;;;;;;;0.30;0.30;;;21.00;99.90;;;;;;5023762;28;20040;-68
2022/08/24 05:46:07;;;;;;;0.17;0.17;;;21.00;99.90;;;;;;5033891;28;20078;-68
2022/08/24 05:48:34;;;;;;;0.10;0.10;;;21.00;99.90;;;;;;5020575;28;20029;-68
2022/08/24 05:51:01;;;;;;;0.47;0.35;;;21.10;99.90;;;;;;5032100;28;20067;-68
2022/08/24 05:53:28;;;;;;;0.43;0.43;;;21.10;99.90;;;;;;5032161;28;20028;-67
2022/08/24 05:55:53;;;;;;;0.10;0.10;;;21.10;99.90;;;;;;5013659;28;20041;-67
2022/08/24 05:58:19;;;;;;;0.40;0.40;;;21.10;99.90;;;;;;5034928;28;20034;-68
2022/08/24 06:00:46;;;;;;;0.43;0.43;;;21.10;99.90;;;;;;5032579;28;20047;-67
2022/08/24 06:03:13;;;;;;;3.78;1.05;;;21.10;99.70;;;;;;5030436;28;20120;-68
2022/08/24 06:05:44;;;;;;;0.25;0.25;;;21.10;99.30;;;;;;5050596;28;20040;-68
2022/08/24 06:08:10;;;;;;;0.25;0.25;;;21.20;98.80;;;;;;5050769;28;20075;-68
2022/08/24 06:10:43;;;;;;;0.90;0.90;;;21.20;98.80;;;;;;5050211;28;20075;-68
2022/08/24 06:13:10;;;;;;;0.30;0.30;;;21.20;98.70;;;;;;5033740;28;20051;-68
2022/08/24 06:15:37;;;;;;;0.47;0.47;;;21.30;98.40;;;;;;5052122;28;20035;-68
2022/08/24 06:18:05;;;;;;;0.40;0.40;;;21.30;98.10;;;;;;5050580;28;20500;-67
2022/08/24 06:20:33;;;;;;;0.75;0.63;;;21.30;97.60;;;;;;5038804;28;20037;-68
2022/08/24 06:22:59;;;;;;;1.45;0.70;;;21.30;97.70;;;;;;5050154;28;20434;-67
2022/08/24 06:28:09;;;;;;;0.17;0.17;;;21.40;97.20;;;;;;5051500;28;20109;-68
2022/08/24 06:30:34;;;;;;;0.30;0.25;;;21.50;96.60;;;;;;5051441;28;20116;-67
2022/08/24 06:33:02;;;;;;;2.17;0.73;;;21.50;96.60;;;;;;5051237;28;20419;-67
2022/08/24 06:35:27;;;;;;;0.15;0.15;;;21.60;96.40;;;;;;5052004;28;20044;-67
2022/08/24 06:37:53;;;;;;;0.70;0.55;;;21.60;96.40;;;;;;5050193;28;20025;-68
2022/08/24 06:40:19;;;;;;;0.85;0.60;;;21.60;96.30;;;;;;5050618;28;20067;-67
2022/08/24 06:42:46;;;;;;;1.10;0.88;;;21.70;96.10;;;;;;5051032;28;20094;-68
2022/08/24 06:45:12;;;;;;;0.30;0.30;;;21.70;95.80;;;;;;5050900;28;20032;-67
2022/08/24 06:47:37;;;;;;;0.93;0.82;;;21.80;95.90;;;;;;5050720;28;20036;-68
2022/08/24 06:50:05;;;;;;;6.80;0.50;;;21.90;95.60;;;;;;5039651;28;20105;-67
2022/08/24 06:52:31;;;;;;;0.32;0.22;;;21.90;95.40;;;;;;5013504;28;20021;-67
2022/08/24 06:54:57;;;;;;;0.25;0.20;;;22.00;95.20;;;;;;5030868;28;20026;-67
2022/08/24 06:57:23;;;;;;;0.20;0.17;;;22.00;94.90;;;;;;5012863;28;20029;-68
2022/08/24 06:59:49;;;;;;;16.38;1.60;;;22.10;94.90;;;;;;5030931;28;20057;-66
2022/08/24 07:02:17;;;;;;;1.25;0.90;;;22.10;94.30;;;;;;5030852;28;20044;-66
2022/08/24 07:04:44;;;;;;;1.10;0.95;;;22.20;94.20;;;;;;5030894;28;20032;-67
2022/08/24 07:07:11;;;;;;;0.35;0.35;;;22.30;93.90;;;;;;5013506;28;20040;-66
2022/08/24 07:09:37;;;;;;;0.20;0.20;;;22.40;93.40;;;;;;5012934;28;20108;-67
2022/08/24 07:12:03;;;;;;;0.45;0.30;;;22.50;93.30;;;;;;5013011;28;20509;-67
2022/08/24 07:14:29;;;;;;;1.55;0.85;;;22.60;93.50;;;;;;5030463;28;20088;-68
2022/08/24 07:16:55;;;;;;;0.35;0.22;;;22.70;93.10;;;;;;5030880;28;20133;-67
2022/08/24 07:19:21;;;;;;;0.52;0.52;;;22.70;91.90;;;;;;5030074;28;20136;-67
2022/08/24 07:21:47;;;;;;;0.03;0.03;;;22.80;91.80;;;;;;5012901;28;20036;-68
2022/08/24 07:24:13;;;;;;;1.20;0.82;;;22.90;91.60;;;;;;5030601;28;20033;-68
2022/08/24 07:26:39;;;;;;;0.88;0.88;;;22.90;91.50;;;;;;5012587;28;20030;-69
2022/08/24 07:29:10;;;;;;;1.45;0.95;;;23.00;91.00;;;;;;4996570;28;20025;-68
2022/08/24 07:31:38;;;;;;;2.10;1.35;;;23.00;90.70;;;;;;5013027;28;20774;-68
2022/08/24 07:34:07;;;;;;;0.65;0.65;;;23.00;90.60;;;;;;5012986;28;20065;-68
2022/08/24 07:36:35;;;;;;;0.32;0.30;;;23.20;90.50;;;;;;5012856;28;20393;-67
2022/08/24 07:39:02;;;;;;;0.13;0.13;;;23.30;90.40;;;;;;5030254;28;20041;-68
2022/08/24 07:41:30;;;;;;;0.40;0.25;;;23.40;90.40;;;;;;5030481;28;20053;-68
2022/08/24 07:43:57;;;;;;;0.47;0.40;;;23.50;90.00;;;;;;5030293;28;20396;-68
2022/08/24 07:46:23;;;;;;;0.13;0.13;;;23.50;89.60;;;;;;5030419;28;20026;-68
2022/08/24 07:48:49;;;;;;;0.40;0.40;;;23.70;90.10;;;;;;5013423;28;20028;-68
2022/08/24 07:51:18;;;;;;;1.65;0.75;;;23.80;89.20;;;;;;5050280;28;20432;-69
2022/08/24 07:53:44;;;;;;;0.20;0.20;;;23.90;88.50;;;;;;5050215;28;20021;-69
2022/08/24 07:56:11;;;;;;;3.15;0.35;;;24.00;88.30;;;;;;5050231;28;20041;-69
2022/08/24 07:58:37;;;;;;;0.80;0.63;;;24.20;88.50;;;;;;5048407;28;20028;-69
2022/08/24 08:01:04;;;;;;;0.30;0.30;;;24.30;87.50;;;;;;5049980;28;20033;-69
2022/08/24 08:03:32;;;;;;;3.42;1.63;;;24.40;87.00;;;;;;5048581;28;20029;-68
2022/08/24 08:06:03;;;;;;;3.50;1.00;;;24.30;86.70;;;;;;5050358;28;20052;-68
2022/08/24 08:08:31;;;;;;;0.70;0.55;;;24.50;86.20;;;;;;5049061;28;20045;-68
2022/08/24 08:10:57;;;;;;;0.05;0.05;;;24.60;86.00;;;;;;5050065;28;20029;-69
2022/08/24 08:15:51;;;;;;;0.00;0.00;;;24.80;84.90;;;;;;5026703;28;20045;-67
2022/08/24 08:18:18;;;;;;;0.00;0.00;;;24.80;84.30;;;;;;5030209;28;20040;-67
2022/08/24 08:20:43;;;;;;;0.38;0.35;;;25.00;84.70;;;;;;5029698;28;20076;-68
2022/08/24 08:26:00;;;;;;;1.27;0.85;;;25.20;82.90;;;;;;4995204;28;20022;-68
2022/08/24 08:28:31;;;;;;;2.38;0.63;;;25.40;82.30;;;;;;5010273;28;20096;-68
2022/08/24 08:31:02;;;;;;;0.00;0.00;;;25.50;82.40;;;;;;5010103;28;20034;-68
2022/08/24 08:33:29;;;;;;;0.65;0.57;;;25.60;81.20;;;;;;5009997;28;20030;-68
2022/08/24 08:36:08;;;;;;;0.00;0.00;;;25.70;81.90;;;;;;4992644;28;20041;-68
2022/08/24 08:38:35;;;;;;;6.70;0.80;;;25.80;80.50;;;;;;4995269;28;20057;-67
2022/08/24 08:41:18;;;;;;;7.68;0.80;;;25.90;80.00;;;;;;5013653;28;20030;-68
2022/08/24 08:44:05;;;;;;;0.38;0.38;;;25.90;80.00;;;;;;5012975;28;20832;-68
2022/08/24 08:46:57;;;;;;;0.75;0.75;;;25.90;79.80;;;;;;5013927;28;20065;-68
2022/08/24 08:49:50;;;;;;;1.13;0.20;;;26.10;80.10;;;;;;4998442;28;20088;-68
2022/08/24 08:52:30;;;;;;;1.45;1.08;;;26.10;79.10;;;;;;5013731;28;20034;-68
2022/08/24 08:55:25;;;;;;;0.30;0.30;;;26.20;78.90;;;;;;4996070;28;20038;-68
2022/08/24 08:58:12;;;;;;;15.10;0.93;;;26.40;78.90;;;;;;5013527;28;20058;-68
2022/08/24 09:01:08;;;;;;;0.80;0.70;;;26.50;78.00;;;;;;5013100;28;20194;-68
2022/08/24 09:03:56;;;;;;;0.13;0.13;;;26.70;78.20;;;;;;5013411;28;20084;-68
2022/08/24 09:06:46;;;;;;;2.95;0.93;;;26.60;77.10;;;;;;5013344;28;20108;-68
2022/08/24 09:09:27;;;;;;;0.40;0.33;;;26.70;76.80;;;;;;4996292;28;20032;-68
2022/08/24 09:12:30;;;;;;;0.55;0.38;;;26.70;76.80;;;;;;4996617;28;20062;-67
2022/08/24 09:15:20;;;;;;;1.48;0.90;;;26.80;76.80;;;;;;4998113;28;20069;-68
2022/08/24 09:18:11;;;;;;;0.00;0.00;;;27.00;76.80;;;;;;5013420;28;20044;-68
2022/08/24 09:21:21;;;;;;;3.63;0.98;;;26.90;75.50;;;;;;5012812;28;20065;-68
2022/08/24 09:24:48;;;;;;;1.98;1.35;;;27.20;75.70;;;;;;4932634;29;20421;-68
2022/08/24 09:27:37;;;;;;;0.77;0.73;;;27.40;75.40;;;;;;4989663;28;20042;-68
2022/08/24 09:30:20;;;;;;;0.57;0.28;;;27.30;75.60;;;;;;4998063;28;20037;-68
2022/08/24 09:33:19;;;;;;;1.48;0.43;;;27.40;74.80;;;;;;5012755;28;20049;-68
2022/08/24 09:36:07;;;;;;;0.03;0.00;;;27.40;74.70;;;;;;4997375;28;20030;-68
2022/08/24 09:38:51;;;;;;;3.38;1.95;;;27.50;74.40;;;;;;4995951;28;20037;-68
2022/08/24 09:41:57;;;;;;;0.47;0.47;;;27.60;74.50;;;;;;5012942;28;20052;-68
2022/08/24 09:44:48;;;;;;;0.47;0.43;;;27.60;73.80;;;;;;5012466;28;20038;-68
2022/08/24 09:47:39;;;;;;;1.40;1.30;;;27.80;73.90;;;;;;5012951;28;20461;-68
2022/08/24 09:50:45;;;;;;;1.45;0.65;;;27.90;73.80;;;;;;4997023;28;20032;-68
2022/08/24 09:54:23;;;;;;;1.20;0.57;;;28.10;73.20;;;;;;5012207;28;20398;-68
2022/08/24 09:57:30;;;;;;;0.43;0.43;;;28.30;73.50;;;;;;4887372;29;20125;-68
2022/08/24 10:00:14;;;;;;;1.40;0.85;;;28.60;72.30;;;;;;4894674;29;20063;-68
2022/08/24 10:03:21;;;;;;;1.17;0.75;;;28.70;71.90;;;;;;4975841;28;20030;-67
2022/08/24 10:06:06;;;;;;;0.20;0.15;;;28.80;71.90;;;;;;5008377;28;20401;-68
2022/08/24 10:08:56;;;;;;;0.25;0.22;;;28.90;71.90;;;;;;5012118;28;20033;-68
2022/08/24 10:11:46;;;;;;;0.65;0.50;;;28.90;70.90;;;;;;4995846;28;20068;-68
2022/08/24 10:14:42;;;;;;;0.65;0.52;;;29.20;70.30;;;;;;4994385;28;20041;-68
2022/08/24 10:17:49;;;;;;;5.05;1.10;;;29.50;70.40;;;;;;5012262;28;20038;-69
2022/08/24 10:20:22;;;;;;;0.90;0.80;;;29.60;70.00;;;;;;5011876;28;20034;-68
2022/08/24 10:23:07;;;;;;;0.35;0.20;;;29.50;69.30;;;;;;5012274;28;20030;-68
2022/08/24 10:26:01;;;;;;;0.00;0.00;;;29.80;70.20;;;;;;4994334;28;20022;-68
2022/08/24 10:28:49;;;;;;;0.17;0.10;;;29.90;69.20;;;;;;5012077;28;20025;-67
2022/08/24 10:32:07;;;;;;;0.13;0.13;;;30.00;69.30;;;;;;5011830;28;20488;-67
2022/08/24 10:34:59;;;;;;;0.55;0.28;;;30.20;67.90;;;;;;5011608;28;20034;-68
2022/08/24 10:37:42;;;;;;;0.95;0.35;;;30.30;67.60;;;;;;4996862;28;20125;-68
2022/08/24 10:40:26;;;;;;;0.43;0.28;;;30.40;67.20;;;;;;4993646;28;20057;-68
2022/08/24 10:46:32;;;;;;;0.28;0.28;;;30.50;66.20;;;;;;5011660;28;20107;-67
2022/08/24 10:49:34;;;;;;;3.95;0.38;;;30.80;67.00;;;;;;5011380;28;20030;-68
2022/08/24 10:52:40;;;;;;;0.10;0.10;;;30.90;66.10;;;;;;5011417;28;20042;-68
2022/08/24 10:55:24;;;;;;;0.65;0.28;;;31.30;66.00;;;;;;5011032;28;20498;-68
2022/08/24 10:58:45;;;;;;;0.30;0.30;;;31.10;65.70;;;;;;4994391;28;20033;-68
2022/08/24 11:01:30;;;;;;;0.50;0.35;;;31.20;65.00;;;;;;5010482;28;20055;-68
2022/08/24 11:04:07;;;;;;;0.38;0.38;;;31.50;65.60;;;;;;4994204;28;20077;-68
2022/08/24 11:06:37;;;;;;;14.52;0.55;;;31.60;65.00;;;;;;5011319;28;20485;-68
2022/08/24 11:09:12;;;;;;;1.20;0.60;;;31.70;65.10;;;;;;5011085;28;20033;-67
2022/08/24 11:11:45;;;;;;;0.65;0.47;;;31.80;64.80;;;;;;5011249;28;20037;-67
2022/08/24 11:14:29;;;;;;;0.63;0.30;;;31.80;64.10;;;;;;5010626;28;20121;-67
2022/08/24 11:17:15;;;;;;;1.05;0.38;;;32.10;64.80;;;;;;5011258;28;20472;-68
2022/08/24 11:19:42;;;;;;;0.20;0.20;;;32.50;64.30;;;;;;4993461;28;20030;-67
2022/08/24 11:22:55;;;;;;;1.30;0.52;;;32.40;63.70;;;;;;5010785;28;20042;-68
2022/08/24 11:25:31;;;;;;;0.00;0.00;;;32.40;63.70;;;;;;4996990;28;20124;-67
2022/08/24 11:28:43;;;;;;;0.30;0.30;;;32.40;63.40;;;;;;4993087;28;20045;-67
2022/08/24 11:31:25;;;;;;;7.32;0.63;;;32.70;63.90;;;;;;5010275;28;20034;-66
2022/08/24 11:34:06;;;;;;;1.00;0.30;;;32.70;62.70;;;;;;4994171;28;20030;-67
2022/08/24 11:36:37;;;;;;;0.50;0.30;;;33.00;62.30;;;;;;5010614;28;20026;-67
2022/08/24 11:39:29;;;;;;;0.10;0.10;;;33.30;61.80;;;;;;4993097;28;20112;-67
2022/08/24 11:42:38;;;;;;;0.00;0.00;;;33.40;61.00;;;;;;5010784;28;20021;-66
2022/08/24 11:45:59;;;;;;;1.02;0.95;;;33.20;59.70;;;;;;5010536;28;20033;-67
2022/08/24 11:48:44;;;;;;;0.08;0.08;;;33.40;60.20;;;;;;4982048;28;20037;-67
2022/08/24 11:51:31;;;;;;;0.45;0.25;;;33.60;60.40;;;;;;4993311;28;20057;-66
2022/08/24 11:54:18;;;;;;;1.15;0.57;;;34.00;59.40;;;;;;5009476;28;20034;-67
2022/08/24 11:57:17;;;;;;;0.05;0.05;;;34.00;59.00;;;;;;4996427;28;20029;-66
2022/08/24 11:59:44;;;;;;;0.10;0.05;;;33.80;59.60;;;;;;4992486;28;20034;-67
2022/08/24 12:02:47;;;;;;;0.30;0.28;;;34.30;58.00;;;;;;5010361;28;20105;-66
2022/08/24 12:05:41;;;;;;;0.32;0.32;;;34.00;58.50;;;;;;4995317;28;20069;-67
2022/08/24 12:08:22;;;;;;;0.73;0.47;;;34.20;57.90;;;;;;5010434;28;20026;-67
2022/08/24 12:11:08;;;;;;;0.98;0.40;;;34.30;57.80;;;;;;5010457;28;20477;-66
2022/08/24 12:14:01;;;;;;;8.18;0.30;;;33.80;57.20;;;;;;4998223;28;20173;-66
2022/08/24 12:17:00;;;;;;;0.80;0.73;;;33.90;57.90;;;;;;5014337;28;20062;-66
2022/08/24 12:19:35;;;;;;;1.40;0.83;;;34.50;57.10;;;;;;4999212;28;20478;-66
2022/08/24 12:22:06;;;;;;;0.10;0.10;;;34.10;56.70;;;;;;4996698;28;20280;-66
2022/08/24 12:24:59;;;;;;;0.28;0.28;;;34.50;56.80;;;;;;4996931;28;20093;-66
2022/08/24 12:27:33;;;;;;;0.43;0.43;;;34.60;56.10;;;;;;4999363;28;20053;-66
2022/08/24 12:30:06;;;;;;;0.00;0.00;;;34.80;54.60;;;;;;5013896;28;20077;-66
2022/08/24 12:32:46;;;;;;;0.10;0.00;;;34.50;56.10;;;;;;4997446;28;20470;-66
2022/08/24 12:35:39;;;;;;;0.40;0.20;;;34.80;54.80;;;;;;4996208;28;20049;-66
2022/08/24 12:38:34;;;;;;;0.77;0.77;;;35.10;54.60;;;;;;4997061;28;20055;-66
2022/08/24 12:41:14;;;;;;;0.25;0.25;;;35.20;54.80;;;;;;4997513;28;20038;-66
2022/08/24 12:43:59;;;;;;;0.93;0.63;;;35.00;54.30;;;;;;4997061;28;20037;-66
2022/08/24 12:46:26;;;;;;;0.10;0.10;;;34.30;54.50;;;;;;5013684;28;20041;-67
2022/08/24 12:49:18;;;;;;;0.03;0.03;;;34.90;54.50;;;;;;4996268;28;20109;-67
2022/08/24 12:52:08;;;;;;;0.25;0.25;;;35.20;53.80;;;;;;4998237;28;20033;-66
2022/08/24 12:54:45;;;;;;;0.35;0.28;;;35.40;53.90;;;;;;5013590;28;20033;-67
2022/08/24 12:57:32;;;;;;;0.47;0.32;;;36.00;53.30;;;;;;4996111;28;20061;-67
2022/08/24 13:00:12;;;;;;;0.17;0.17;;;36.20;52.50;;;;;;5012672;28;20092;-67
2022/08/24 13:02:44;;;;;;;0.65;0.60;;;35.50;52.20;;;;;;4996657;28;20496;-66
2022/08/24 13:05:18;;;;;;;0.00;0.00;;;36.00;52.90;;;;;;5013231;28;20652;-66
2022/08/24 13:07:48;;;;;;;0.00;0.00;;;36.30;52.40;;;;;;5013266;28;20052;-66
2022/08/24 13:10:42;;;;;;;0.10;0.10;;;37.10;51.80;;;;;;5013790;28;20133;-67
2022/08/24 13:13:19;;;;;;;0.00;0.00;;;37.20;50.60;;;;;;4994642;28;20062;-66
2022/08/24 13:15:54;;;;;;;0.35;0.35;;;37.60;50.40;;;;;;4996448;28;20124;-66
2022/08/24 13:18:19;;;;;;;6.88;0.38;;;36.90;50.30;;;;;;5013289;28;20420;-67
2022/08/24 13:20:48;;;;;;;0.45;0.45;;;37.00;50.30;;;;;;5012841;28;20045;-66
2022/08/24 13:23:20;;;;;;;0.30;0.20;;;36.50;49.60;;;;;;5012174;28;20120;-66
2022/08/24 13:25:46;;;;;;;0.20;0.10;;;36.60;50.20;;;;;;4995703;28;20557;-66
2022/08/24 13:28:21;;;;;;;0.05;0.05;;;36.70;49.70;;;;;;5013238;28;20128;-67
2022/08/24 13:30:52;;;;;;;0.55;0.45;;;37.20;49.50;;;;;;5012790;28;20088;-67
2022/08/24 13:33:42;;;;;;;0.00;0.00;;;37.30;49.40;;;;;;5012855;28;20473;-66
2022/08/24 13:36:28;;;;;;;0.77;0.38;;;38.00;49.10;;;;;;4997449;28;20057;-66
2022/08/24 13:39:27;;;;;;;8.32;0.70;;;38.00;48.90;;;;;;5012707;28;20033;-66